Time;durP1;ratioP1;P1;durP2;ratioP2;P2;SDS_P1;SDS_P2;PMS_P1;PMS_P2;Temp;Humidity;BMP_temperature;BMP_pressure;BME280_temperature;BME280_humidity;BME280_pressure;Samples;Min_cycle;Max_cycle;Signal;HPM_P1;HPM_P2
2022/02/15 00:00:03;;;;;;;1.42;1.33;;;4.50;1.40;;;5.60;100.00;94697.06;647693;216;42149;-75
2022/02/15 00:02:44;;;;;;;0.70;0.70;;;4.40;1.40;;;5.52;100.00;94691.93;646429;212;31576;-74
2022/02/15 00:05:26;;;;;;;1.80;1.12;;;4.60;1.40;;;5.46;100.00;94688.63;641323;217;42126;-74
2022/02/15 00:08:08;;;;;;;0.90;0.60;;;4.60;1.40;;;5.39;100.00;94690.53;647374;216;31556;-74
2022/02/15 00:10:49;;;;;;;0.90;0.80;;;4.50;1.40;;;5.37;100.00;94685.99;646597;216;31595;-75
2022/02/15 00:13:36;;;;;;;1.00;0.80;;;4.50;1.40;;;5.41;100.00;94689.13;647578;212;32056;-75
2022/02/15 00:16:18;;;;;;;0.98;0.60;;;4.40;1.40;;;5.42;100.00;94696.91;647768;212;31509;-75
2022/02/15 00:19:00;;;;;;;1.40;1.30;;;4.30;1.40;;;5.52;100.00;94699.95;647084;216;42282;-74
2022/02/15 00:21:42;;;;;;;1.40;1.30;;;4.40;1.40;;;5.45;100.00;94703.09;647169;212;31680;-75
2022/02/15 00:24:23;;;;;;;1.02;1.02;;;4.40;1.40;;;5.42;100.00;94703.25;620911;222;32705;-74
2022/02/15 00:27:05;;;;;;;1.40;1.30;;;4.50;1.40;;;5.36;100.00;94700.73;648140;212;42166;-74
2022/02/15 00:29:47;;;;;;;2.60;1.48;;;4.50;1.40;;;5.44;100.00;94705.16;646421;216;31579;-75
2022/02/15 00:32:29;;;;;;;1.30;1.20;;;4.60;1.40;;;5.55;100.00;94701.03;619704;226;32276;-74
2022/02/15 00:35:51;;;;;;;2.10;1.75;;;4.70;1.40;;;5.41;100.00;94702.09;647866;216;31805;-75
2022/02/15 00:38:36;;;;;;;1.50;1.40;;;4.60;1.40;;;5.47;100.00;94701.56;647308;216;42745;-74
2022/02/15 00:41:18;;;;;;;1.30;1.20;;;4.70;1.40;;;5.39;100.00;94703.67;647260;212;31596;-74
2022/02/15 00:44:03;;;;;;;2.55;2.35;;;4.60;1.40;;;5.34;100.00;94713.92;646218;216;31529;-74
2022/02/15 00:46:45;;;;;;;1.00;0.95;;;4.50;1.40;;;5.39;100.00;94708.81;647302;216;43372;-74
2022/02/15 00:49:26;;;;;;;3.37;1.35;;;4.70;1.40;;;5.40;100.00;94713.60;646631;216;42289;-74
2022/02/15 00:52:08;;;;;;;1.00;0.90;;;4.70;1.40;;;5.42;100.00;94714.48;631552;221;31748;-75
2022/02/15 00:54:50;;;;;;;1.60;1.40;;;4.60;1.40;;;5.39;100.00;94715.92;647640;216;42143;-73
2022/02/15 00:57:31;;;;;;;2.17;1.20;;;4.60;1.40;;;5.46;100.00;94714.59;647168;216;31560;-75
2022/02/15 01:00:15;;;;;;;0.98;0.80;;;4.70;1.40;;;5.39;100.00;94715.77;647686;216;31493;-75
2022/02/15 01:02:56;;;;;;;1.10;1.00;;;4.70;1.40;;;5.38;100.00;94718.98;646187;216;31605;-75
2022/02/15 01:05:38;;;;;;;2.10;1.00;;;4.80;1.40;;;5.40;100.00;94720.27;646208;212;31479;-74
2022/02/15 01:08:21;;;;;;;1.00;0.90;;;4.80;1.40;;;5.51;100.00;94721.52;646169;216;31578;-75
2022/02/15 01:11:02;;;;;;;1.23;1.10;;;4.90;1.40;;;5.51;100.00;94725.65;646849;212;32373;-75
2022/02/15 01:13:47;;;;;;;0.62;0.62;;;4.90;1.40;;;5.46;100.00;94723.31;646854;216;31561;-74
2022/02/15 01:16:30;;;;;;;0.93;0.73;;;4.80;1.40;;;5.54;100.00;94725.98;647214;216;42182;-73
2022/02/15 01:19:11;;;;;;;1.10;1.00;;;4.80;1.40;;;5.44;100.00;94731.12;647076;216;31489;-74
2022/02/15 01:21:53;;;;;;;3.50;2.10;;;4.70;1.40;;;5.50;100.00;94731.95;647860;216;31546;-74
2022/02/15 01:24:35;;;;;;;1.60;0.90;;;4.90;1.40;;;5.45;100.00;94735.89;618784;226;31909;-74
2022/02/15 01:27:20;;;;;;;3.30;1.10;;;4.90;1.40;;;5.42;100.00;94735.56;648368;216;42160;-74
2022/02/15 01:32:36;;;;;;;0.88;0.50;;;4.80;1.40;;;5.47;100.00;94737.16;647561;216;42147;-75
2022/02/15 01:35:51;;;;;;;1.70;0.98;;;4.80;1.40;;;5.44;100.00;94734.19;645977;216;31577;-75
2022/02/15 01:38:33;;;;;;;1.08;0.95;;;4.80;1.40;;;5.40;100.00;94735.05;647780;216;31565;-74
2022/02/15 01:41:14;;;;;;;0.95;0.95;;;4.90;1.40;;;5.46;100.00;94734.92;619232;222;31814;-74
2022/02/15 01:43:56;;;;;;;1.20;1.05;;;4.90;1.40;;;5.46;100.00;94736.58;647807;216;31591;-75
2022/02/15 01:46:38;;;;;;;1.80;1.27;;;4.80;1.40;;;5.40;100.00;94739.52;647035;212;31506;-73
2022/02/15 01:49:20;;;;;;;2.40;1.58;;;4.80;1.40;;;5.41;100.00;94737.77;620015;226;42539;-75
2022/02/15 01:52:05;;;;;;;1.10;0.73;;;4.80;1.40;;;5.43;100.00;94731.41;647495;212;31881;-75
2022/02/15 01:54:48;;;;;;;0.80;0.70;;;4.80;1.40;;;5.39;100.00;94724.14;646964;212;31518;-74
2022/02/15 01:57:30;;;;;;;1.17;1.08;;;4.90;1.40;;;5.42;100.00;94725.98;647710;216;31659;-74
2022/02/15 02:00:14;;;;;;;0.70;0.70;;;4.80;1.40;;;5.36;100.00;94725.46;646236;216;32103;-74
2022/02/15 02:02:56;;;;;;;2.70;1.00;;;4.80;1.40;;;5.35;100.00;94734.87;646778;216;31509;-75
2022/02/15 02:08:27;;;;;;;0.95;0.85;;;4.90;1.40;;;5.39;100.00;94728.42;647520;216;31551;-74
2022/02/15 02:11:08;;;;;;;1.60;0.80;;;4.80;1.40;;;5.37;100.00;94729.42;647286;216;42167;-75
2022/02/15 02:13:50;;;;;;;1.00;0.80;;;4.80;1.40;;;5.38;100.00;94730.48;646665;216;31561;-74
2022/02/15 02:16:32;;;;;;;1.90;1.40;;;4.80;1.40;;;5.39;100.00;94730.44;647708;212;31511;-74
2022/02/15 02:19:13;;;;;;;1.00;0.80;;;4.80;1.40;;;5.30;100.00;94734.03;645923;216;32142;-74
2022/02/15 02:22:01;;;;;;;1.90;1.02;;;4.70;1.40;;;5.35;100.00;94735.14;646873;216;31542;-74
2022/02/15 02:24:40;;;;;;;0.65;0.65;;;4.70;1.40;;;5.30;100.00;94734.19;647311;216;31484;-75
2022/02/15 02:27:23;;;;;;;1.02;0.75;;;4.70;1.40;;;5.33;100.00;94735.06;647841;216;42168;-75
2022/02/15 02:30:05;;;;;;;1.23;1.10;;;4.60;1.40;;;5.38;100.00;94734.56;646658;216;31518;-74
2022/02/15 02:32:46;;;;;;;0.60;0.60;;;4.70;1.40;;;5.30;100.00;94736.55;619793;226;31835;-74
2022/02/15 02:36:00;;;;;;;0.77;0.77;;;4.80;1.40;;;5.40;100.00;94736.44;645500;216;31502;-74
2022/02/15 02:38:45;;;;;;;1.23;1.05;;;4.80;1.40;;;5.40;100.00;94741.18;646684;216;31498;-74
2022/02/15 02:41:30;;;;;;;1.08;0.98;;;4.80;1.40;;;5.34;100.00;94738.27;645772;216;31706;-75
2022/02/15 02:44:12;;;;;;;0.77;0.57;;;4.70;1.40;;;5.32;100.00;94745.81;647537;212;31637;-74
2022/02/15 02:46:53;;;;;;;1.05;0.50;;;4.70;1.40;;;5.33;100.00;94752.62;647898;216;31501;-75
2022/02/15 02:49:38;;;;;;;1.35;0.98;;;4.70;1.40;;;5.23;100.00;94759.22;647508;216;32216;-75
2022/02/15 02:52:21;;;;;;;1.20;0.80;;;4.70;1.40;;;5.19;100.00;94753.86;646343;216;31525;-74
2022/02/15 02:55:02;;;;;;;1.30;0.55;;;4.60;1.40;;;5.12;100.00;94757.71;647572;216;31507;-74
2022/02/15 02:57:44;;;;;;;0.80;0.50;;;4.60;1.40;;;5.13;100.00;94759.25;646891;216;31508;-75
2022/02/15 03:00:29;;;;;;;0.50;0.50;;;4.60;1.40;;;5.16;100.00;94758.14;646407;216;32326;-74
2022/02/15 03:03:10;;;;;;;1.10;0.90;;;4.60;1.40;;;5.14;100.00;94755.91;619505;226;31947;-74
2022/02/15 03:05:52;;;;;;;0.50;0.40;;;4.60;1.40;;;5.09;100.00;94761.84;644847;212;31680;-74
2022/02/15 03:08:34;;;;;;;0.50;0.40;;;4.60;1.40;;;5.03;100.00;94767.06;646533;212;31567;-74
2022/02/15 03:11:16;;;;;;;0.57;0.57;;;4.50;1.40;;;4.95;100.00;94767.70;646533;216;31519;-74
2022/02/15 03:13:57;;;;;;;0.50;0.50;;;4.50;1.40;;;4.88;100.00;94773.97;646694;216;32086;-74
2022/02/15 03:16:39;;;;;;;1.60;0.90;;;4.40;1.40;;;4.93;100.00;94782.29;619597;222;31884;-74
2022/02/15 03:19:21;;;;;;;0.80;0.80;;;4.50;1.40;;;4.93;100.00;94783.73;646301;212;31490;-74
2022/02/15 03:22:02;;;;;;;1.30;0.80;;;4.40;1.40;;;4.85;100.00;94781.35;646436;212;32093;-75
2022/02/15 03:27:19;;;;;;;0.60;0.60;;;4.30;1.40;;;4.70;100.00;94785.56;647076;216;31491;-75
2022/02/15 03:30:00;;;;;;;0.40;0.40;;;4.20;1.40;;;4.84;100.00;94783.41;618599;222;32441;-75
2022/02/15 03:32:42;;;;;;;1.55;0.55;;;4.20;1.40;;;4.63;100.00;94787.17;647510;216;31788;-75
2022/02/15 03:35:51;;;;;;;1.00;0.60;;;4.10;1.40;;;4.55;100.00;94785.95;647347;216;42769;-75
2022/02/15 03:38:33;;;;;;;4.30;0.90;;;4.10;1.40;;;4.54;100.00;94783.66;646246;212;31525;-74
2022/02/15 03:44:02;;;;;;;0.55;0.50;;;4.00;1.40;;;4.49;100.00;94786.88;619672;226;31943;-75
2022/02/15 03:46:43;;;;;;;0.50;0.50;;;3.90;1.40;;;4.45;100.00;94788.27;646898;212;31830;-75
2022/02/15 03:49:25;;;;;;;1.50;0.60;;;4.00;1.40;;;4.49;100.00;94789.98;647520;216;31515;-75
2022/02/15 03:52:07;;;;;;;1.00;0.90;;;4.00;1.40;;;4.45;100.00;94785.38;646612;212;31502;-75
2022/02/15 03:54:50;;;;;;;0.60;0.60;;;3.90;1.40;;;4.39;100.00;94786.56;646768;212;31575;-76
2022/02/15 03:57:35;;;;;;;0.80;0.70;;;3.90;1.40;;;4.43;100.00;94788.56;647684;212;31532;-77
2022/02/15 04:00:15;;;;;;;0.65;0.65;;;3.90;1.40;;;4.37;100.00;94783.52;618766;222;31803;-75
2022/02/15 04:02:56;;;;;;;1.98;0.75;;;3.90;1.40;;;4.36;100.00;94784.12;647637;212;31528;-74
2022/02/15 04:05:38;;;;;;;0.60;0.50;;;3.80;1.40;;;4.32;100.00;94788.39;645335;216;31827;-75
2022/02/15 04:08:21;;;;;;;0.75;0.65;;;3.80;1.40;;;4.28;100.00;94794.03;618980;225;31946;-73
2022/02/15 04:11:01;;;;;;;0.90;0.80;;;3.80;1.40;;;4.21;100.00;94794.25;646620;216;31719;-75
2022/02/15 04:13:43;;;;;;;0.40;0.40;;;3.70;1.40;;;4.22;100.00;94794.72;646806;216;31467;-74
2022/02/15 04:16:28;;;;;;;1.12;0.62;;;3.70;1.40;;;4.32;100.00;94798.69;620305;222;31958;-76
2022/02/15 04:19:10;;;;;;;0.43;0.40;;;3.70;1.40;;;4.25;100.00;94796.52;619408;226;31834;-75
2022/02/15 04:21:52;;;;;;;1.30;0.80;;;3.70;1.40;;;4.17;100.00;94806.19;646602;212;31578;-75
2022/02/15 04:24:33;;;;;;;0.90;0.65;;;3.70;1.40;;;4.15;100.00;94809.10;615793;224;32125;-75
2022/02/15 04:27:15;;;;;;;0.55;0.50;;;3.70;1.40;;;4.14;100.00;94812.01;646642;212;31500;-74
2022/02/15 04:29:57;;;;;;;0.50;0.50;;;3.70;1.40;;;4.15;100.00;94813.61;646102;216;32142;-75
2022/02/15 04:32:41;;;;;;;0.90;0.50;;;3.70;1.40;;;4.17;100.00;94815.58;619122;226;31833;-73
2022/02/15 04:35:51;;;;;;;0.50;0.50;;;3.70;1.40;;;4.13;100.00;94818.83;648118;216;31471;-75
2022/02/15 04:38:33;;;;;;;1.00;0.90;;;3.60;1.40;;;4.07;100.00;94821.73;648295;216;31893;-74
2022/02/15 04:41:15;;;;;;;0.55;0.43;;;3.50;1.40;;;4.06;100.00;94815.95;646406;212;31515;-74
2022/02/15 04:43:56;;;;;;;0.40;0.30;;;3.50;1.40;;;4.03;100.00;94817.26;647777;216;31510;-75
2022/02/15 04:46:38;;;;;;;0.40;0.30;;;3.50;1.40;;;4.09;100.00;94822.05;647135;216;31494;-75
2022/02/15 04:49:20;;;;;;;1.10;1.10;;;3.40;1.40;;;4.09;100.00;94825.56;647081;216;31482;-75
2022/02/15 04:52:02;;;;;;;0.60;0.60;;;3.40;1.40;;;4.04;100.00;94821.70;647593;216;31504;-75
2022/02/15 04:54:43;;;;;;;0.40;0.40;;;3.40;1.40;;;4.03;100.00;94825.04;620589;226;31842;-74
2022/02/15 04:57:25;;;;;;;0.80;0.70;;;3.40;1.40;;;4.04;100.00;94825.35;619123;226;31850;-75
2022/02/15 05:00:08;;;;;;;0.40;0.30;;;3.40;1.40;;;4.13;100.00;94827.52;647046;216;31545;-74
2022/02/15 05:02:50;;;;;;;0.60;0.60;;;3.40;1.40;;;4.08;100.00;94835.78;646600;216;31711;-75
2022/02/15 05:05:32;;;;;;;0.50;0.43;;;3.30;1.40;;;4.15;100.00;94829.65;646557;216;32044;-74
2022/02/15 05:08:16;;;;;;;0.70;0.70;;;3.30;1.40;;;4.10;100.00;94835.16;648840;216;31657;-76
2022/02/15 05:10:58;;;;;;;0.70;0.70;;;3.30;1.40;;;4.02;100.00;94832.13;646106;212;42138;-75
2022/02/15 05:13:40;;;;;;;0.40;0.35;;;3.30;1.40;;;3.99;100.00;94829.62;647187;216;31536;-74
2022/02/15 05:16:25;;;;;;;0.90;0.30;;;3.30;1.40;;;3.99;100.00;94834.45;643836;215;31479;-74
2022/02/15 05:19:06;;;;;;;0.80;0.40;;;3.30;1.40;;;3.98;100.00;94833.77;647998;216;31912;-75
2022/02/15 05:21:48;;;;;;;0.40;0.30;;;3.30;1.40;;;3.92;100.00;94828.88;647013;212;31622;-76
2022/02/15 05:24:33;;;;;;;0.50;0.30;;;3.30;1.40;;;3.90;100.00;94834.08;647424;216;31702;-74
2022/02/15 05:27:15;;;;;;;0.40;0.30;;;3.30;1.40;;;3.96;100.00;94838.77;647876;212;42462;-76
2022/02/15 05:29:59;;;;;;;0.50;0.50;;;3.20;1.40;;;3.89;100.00;94835.51;647808;216;31555;-76
2022/02/15 05:32:41;;;;;;;0.50;0.50;;;3.20;1.40;;;3.89;100.00;94840.92;619530;226;32191;-76
2022/02/15 05:35:51;;;;;;;0.60;0.40;;;3.30;1.40;;;3.87;100.00;94844.58;647637;216;31503;-76
2022/02/15 05:38:33;;;;;;;0.80;0.70;;;3.20;1.40;;;3.91;100.00;94846.57;646323;216;31546;-75
2022/02/15 05:41:15;;;;;;;0.45;0.32;;;3.30;1.40;;;3.83;100.00;94850.19;647682;216;31503;-76
2022/02/15 05:43:57;;;;;;;0.50;0.30;;;3.20;1.40;;;3.81;100.00;94850.67;646246;216;31741;-76
2022/02/15 05:49:08;;;;;;;0.60;0.60;;;3.20;1.40;;;3.77;100.00;94854.23;647493;216;31926;-75
2022/02/15 05:51:54;;;;;;;0.40;0.40;;;3.20;1.40;;;3.76;100.00;94859.77;648550;216;32070;-76
2022/02/15 05:54:36;;;;;;;0.50;0.40;;;3.20;1.40;;;3.76;100.00;94861.38;647132;212;42121;-75
2022/02/15 05:57:18;;;;;;;2.60;0.50;;;3.20;1.40;;;3.79;100.00;94860.06;646648;216;31482;-75
2022/02/15 06:00:03;;;;;;;0.60;0.50;;;3.20;1.40;;;3.80;100.00;94863.66;646433;216;31548;-75
2022/02/15 06:02:44;;;;;;;0.40;0.30;;;3.20;1.40;;;3.86;100.00;94867.80;648513;212;31944;-76
2022/02/15 06:05:31;;;;;;;0.40;0.40;;;3.20;1.40;;;3.80;100.00;94866.61;647735;212;42120;-73
2022/02/15 06:08:11;;;;;;;0.40;0.30;;;3.20;1.40;;;3.73;100.00;94871.73;647158;216;31656;-75
2022/02/15 06:10:53;;;;;;;1.17;0.55;;;3.20;1.40;;;3.71;100.00;94868.55;646261;216;31598;-76
2022/02/15 06:13:34;;;;;;;0.50;0.40;;;3.20;1.40;;;3.76;100.00;94869.79;618364;226;31867;-75
2022/02/15 06:16:16;;;;;;;0.55;0.52;;;3.20;1.40;;;3.75;100.00;94874.83;647533;216;31469;-76
2022/02/15 06:19:00;;;;;;;0.50;0.30;;;3.20;1.40;;;3.74;100.00;94878.00;647393;216;31514;-74
2022/02/15 06:21:39;;;;;;;0.60;0.50;;;3.20;1.40;;;3.70;100.00;94877.62;647389;216;31474;-76
2022/02/15 06:24:23;;;;;;;1.80;0.60;;;3.20;1.40;;;3.68;100.00;94880.41;647297;216;31583;-74
2022/02/15 06:27:06;;;;;;;0.50;0.40;;;3.20;1.40;;;3.70;100.00;94882.81;646926;212;31505;-76
2022/02/15 06:29:48;;;;;;;1.30;0.62;;;3.20;1.40;;;3.70;100.00;94884.10;646766;212;31492;-76
2022/02/15 06:32:33;;;;;;;0.70;0.50;;;3.10;1.40;;;3.70;100.00;94886.57;646990;216;31506;-76
2022/02/15 06:35:51;;;;;;;2.00;0.93;;;3.10;1.40;;;3.65;100.00;94890.02;647345;212;31544;-76
2022/02/15 06:38:35;;;;;;;0.60;0.60;;;3.10;1.40;;;3.74;100.00;94894.08;646276;216;31561;-78
2022/02/15 06:41:16;;;;;;;0.70;0.70;;;3.10;1.40;;;3.74;100.00;94895.75;646411;212;31596;-75
2022/02/15 06:43:58;;;;;;;1.10;1.00;;;3.10;1.40;;;3.82;100.00;94897.75;646069;216;31646;-77
2022/02/15 06:46:40;;;;;;;0.60;0.50;;;3.10;1.40;;;3.73;100.00;94907.38;647980;212;32029;-76
2022/02/15 06:49:21;;;;;;;0.60;0.50;;;3.10;1.40;;;3.72;100.00;94909.37;647211;216;31660;-77
2022/02/15 06:52:03;;;;;;;2.08;0.70;;;3.10;1.40;;;3.70;100.00;94914.12;619622;222;31874;-74
2022/02/15 06:54:45;;;;;;;0.70;0.55;;;3.20;1.40;;;3.67;100.00;94922.66;647403;212;42204;-76
2022/02/15 06:57:27;;;;;;;0.70;0.43;;;3.10;1.40;;;3.63;100.00;94922.08;619721;222;31880;-75
2022/02/15 07:00:10;;;;;;;0.70;0.70;;;3.10;1.40;;;3.60;100.00;94914.97;646788;216;31559;-75
2022/02/15 07:02:52;;;;;;;2.60;1.10;;;3.10;1.40;;;3.59;100.00;94925.58;646954;216;31533;-76
2022/02/15 07:05:34;;;;;;;2.00;0.70;;;3.10;1.40;;;3.68;100.00;94928.02;646678;212;31560;-78
2022/02/15 07:10:54;;;;;;;0.50;0.30;;;3.10;1.40;;;3.71;100.00;94937.28;647774;212;31674;-79
2022/02/15 07:13:34;;;;;;;1.70;1.30;;;3.20;1.40;;;3.73;100.00;94936.81;618369;225;31870;-76
2022/02/15 07:16:22;;;;;;;1.30;0.80;;;3.20;1.40;;;3.68;100.00;94940.13;647486;216;31518;-78
2022/02/15 07:19:06;;;;;;;1.17;1.08;;;3.20;1.40;;;3.68;100.00;94937.56;647077;216;31574;-77
2022/02/15 07:21:49;;;;;;;1.50;0.70;;;3.20;1.40;;;3.67;100.00;94941.31;618459;226;31985;-77
2022/02/15 07:24:36;;;;;;;0.90;0.73;;;3.20;1.40;;;3.67;100.00;94943.56;645902;216;31518;-75
2022/02/15 07:27:17;;;;;;;1.40;1.30;;;3.20;1.40;;;3.70;100.00;94944.58;646743;212;31502;-75
2022/02/15 07:30:01;;;;;;;0.45;0.40;;;3.30;1.40;;;3.72;100.00;94947.11;630328;222;31689;-77
2022/02/15 07:32:43;;;;;;;3.50;1.00;;;3.30;1.40;;;3.77;100.00;94952.19;619319;222;32118;-77
2022/02/15 07:35:59;;;;;;;1.00;0.70;;;3.30;1.40;;;3.78;100.00;94950.95;647767;216;32371;-77
2022/02/15 07:38:42;;;;;;;0.50;0.50;;;3.40;1.40;;;3.83;100.00;94961.92;647078;216;31918;-76
2022/02/15 07:41:30;;;;;;;1.83;1.02;;;3.40;1.40;;;3.84;100.00;94958.06;647756;216;31476;-78
2022/02/15 07:44:10;;;;;;;0.73;0.73;;;3.40;1.40;;;3.86;100.00;94961.43;646196;216;31604;-77
2022/02/15 07:46:52;;;;;;;2.10;0.90;;;3.40;1.40;;;3.87;100.00;94960.34;645923;216;31526;-77
2022/02/15 07:49:34;;;;;;;0.60;0.60;;;3.40;1.40;;;3.88;100.00;94963.03;646369;216;31557;-77
2022/02/15 07:52:19;;;;;;;0.75;0.40;;;3.40;1.40;;;3.87;100.00;94962.28;620837;226;32003;-77
2022/02/15 07:55:00;;;;;;;0.90;0.70;;;3.50;1.40;;;3.90;100.00;94959.41;619087;226;32035;-78
2022/02/15 07:57:42;;;;;;;0.90;0.90;;;3.50;1.40;;;3.98;100.00;94964.47;620067;226;32013;-78
2022/02/15 08:00:24;;;;;;;1.00;0.70;;;3.50;1.40;;;4.01;100.00;94961.34;646559;212;31618;-77
2022/02/15 08:03:12;;;;;;;0.57;0.47;;;3.50;1.40;;;4.01;100.00;94968.25;645810;216;31606;-77
2022/02/15 08:05:56;;;;;;;0.68;0.68;;;3.60;1.40;;;4.06;100.00;94963.03;647147;216;31521;-77
2022/02/15 08:08:41;;;;;;;2.37;0.93;;;3.60;1.40;;;4.11;100.00;94971.94;647153;212;32046;-76
2022/02/15 08:11:24;;;;;;;0.90;0.70;;;3.70;1.40;;;4.11;100.00;94965.56;642905;215;31509;-76
2022/02/15 08:14:04;;;;;;;0.40;0.20;;;3.70;1.40;;;4.19;100.00;94971.05;646745;212;31531;-78
2022/02/15 08:16:46;;;;;;;0.70;0.43;;;3.80;1.40;;;4.24;100.00;94971.92;647522;216;32114;-77
2022/02/15 08:19:28;;;;;;;1.20;0.88;;;3.90;1.40;;;4.37;100.00;94976.39;647383;216;31898;-77
2022/02/15 08:22:10;;;;;;;0.60;0.50;;;4.00;1.40;;;4.46;100.00;94973.33;647157;216;31673;-76
2022/02/15 08:24:51;;;;;;;0.80;0.70;;;4.10;1.40;;;4.52;100.00;94976.92;647118;216;31655;-78
2022/02/15 08:27:35;;;;;;;0.55;0.40;;;4.10;1.40;;;4.53;100.00;94985.77;646785;216;31594;-78
2022/02/15 08:30:20;;;;;;;1.10;0.80;;;4.10;1.40;;;4.56;100.00;94991.06;647315;216;31491;-78
2022/02/15 08:35:51;;;;;;;0.50;0.50;;;4.20;1.40;;;4.75;100.00;94987.27;646502;216;42139;-78
2022/02/15 08:38:33;;;;;;;0.55;0.40;;;4.40;1.40;;;4.78;100.00;94989.39;619900;222;32537;-79
2022/02/15 08:41:14;;;;;;;0.50;0.50;;;4.40;1.40;;;4.91;100.00;94993.73;648784;216;31492;-78
2022/02/15 08:43:56;;;;;;;1.20;0.80;;;4.50;1.40;;;5.06;100.00;94999.88;647217;216;31522;-77
2022/02/15 08:46:41;;;;;;;0.40;0.20;;;4.50;1.40;;;5.02;100.00;95005.55;645371;212;31793;-77
2022/02/15 08:49:22;;;;;;;0.93;0.93;;;4.60;1.40;;;5.12;100.00;95007.45;647231;212;31448;-78
2022/02/15 08:52:04;;;;;;;0.60;0.50;;;4.60;1.40;;;5.09;100.00;95015.16;620617;226;31987;-76
2022/02/15 08:54:48;;;;;;;0.50;0.47;;;4.60;1.40;;;4.99;100.00;95015.20;621587;226;32507;-79
2022/02/15 08:57:30;;;;;;;0.40;0.25;;;4.50;1.40;;;4.95;100.00;95027.81;647805;212;31544;-78
2022/02/15 09:00:14;;;;;;;0.70;0.70;;;4.50;1.40;;;5.00;100.00;95030.41;620886;226;31856;-79
2022/02/15 09:02:54;;;;;;;0.90;0.40;;;4.60;1.40;;;5.04;100.00;95024.23;619765;226;31916;-78
2022/02/15 09:05:36;;;;;;;1.30;0.60;;;4.50;1.40;;;5.04;100.00;95027.19;619753;226;32311;-78
2022/02/15 09:08:18;;;;;;;0.40;0.20;;;4.60;1.40;;;5.11;100.00;95028.26;620137;226;31912;-78
2022/02/15 09:11:05;;;;;;;0.70;0.50;;;4.60;1.40;;;5.17;100.00;95032.77;647251;212;32106;-76
2022/02/15 09:13:49;;;;;;;0.73;0.70;;;4.60;1.40;;;5.19;100.00;95034.86;647719;212;32104;-79
2022/02/15 09:16:32;;;;;;;0.85;0.40;;;4.60;1.40;;;5.30;100.00;95036.46;646603;216;31477;-79
2022/02/15 09:19:13;;;;;;;0.40;0.40;;;4.70;1.40;;;5.35;100.00;95035.83;618846;226;32748;-78
2022/02/15 09:21:55;;;;;;;0.60;0.60;;;4.70;1.40;;;5.35;100.00;95037.70;647135;216;31505;-78
2022/02/15 09:24:37;;;;;;;0.50;0.50;;;4.80;1.40;;;5.51;100.00;95037.88;646550;216;31599;-78
2022/02/15 09:27:26;;;;;;;0.60;0.55;;;4.90;1.40;;;5.65;100.00;95033.89;648075;216;42244;-78
2022/02/15 09:30:12;;;;;;;0.60;0.50;;;4.90;1.40;;;5.62;100.00;95036.23;645827;216;31515;-77
2022/02/15 09:32:59;;;;;;;0.40;0.20;;;5.00;1.40;;;5.74;100.00;95042.46;646488;216;31568;-78
2022/02/15 09:35:51;;;;;;;0.40;0.30;;;5.00;1.40;;;5.78;100.00;95039.23;648107;216;31493;-78
2022/02/15 09:38:33;;;;;;;0.70;0.62;;;5.10;1.40;;;5.96;100.00;95036.83;647175;216;31538;-77
2022/02/15 09:41:16;;;;;;;0.70;0.30;;;5.20;1.40;;;6.10;100.00;95038.67;619677;222;32019;-76
2022/02/15 09:44:05;;;;;;;0.45;0.35;;;5.30;1.40;;;6.18;100.00;95039.20;643320;216;31516;-78
2022/02/15 09:46:47;;;;;;;0.40;0.30;;;5.40;1.40;;;6.05;100.00;95040.78;647938;212;42113;-78
2022/02/15 09:52:20;;;;;;;0.50;0.50;;;5.30;1.40;;;5.75;100.00;95051.92;643333;215;31520;-78
2022/02/15 09:55:01;;;;;;;1.90;1.00;;;5.20;1.40;;;5.77;100.00;95053.87;646747;212;42771;-78
2022/02/15 09:57:43;;;;;;;0.60;0.30;;;5.20;1.40;;;5.83;100.00;95061.02;646512;216;32093;-79
2022/02/15 10:00:25;;;;;;;0.90;0.57;;;5.20;1.40;;;5.52;100.00;95065.50;619575;226;42628;-78
2022/02/15 10:03:08;;;;;;;0.50;0.37;;;4.90;1.40;;;5.54;100.00;95068.55;647884;216;31980;-78
2022/02/15 10:05:49;;;;;;;0.50;0.40;;;4.80;1.40;;;5.52;100.00;95065.60;644448;216;31626;-79
2022/02/15 10:08:31;;;;;;;2.40;0.30;;;4.80;1.40;;;5.44;100.00;95068.79;620075;226;31824;-77
2022/02/15 10:13:48;;;;;;;0.60;0.60;;;4.80;1.40;;;5.60;100.00;95069.92;649556;216;31497;-79
2022/02/15 10:16:32;;;;;;;0.40;0.30;;;5.00;1.40;;;5.71;100.00;95073.27;648331;212;32190;-77
2022/02/15 10:19:24;;;;;;;0.40;0.30;;;5.10;1.40;;;5.71;100.00;95075.36;647821;216;31974;-78
2022/02/15 10:22:13;;;;;;;0.40;0.30;;;5.10;1.40;;;5.96;100.00;95075.90;621287;226;31931;-77
2022/02/15 10:24:58;;;;;;;1.00;0.50;;;5.30;1.40;;;5.92;100.00;95079.45;619327;226;32511;-79
2022/02/15 10:27:38;;;;;;;2.10;0.40;;;5.30;1.40;;;5.88;100.00;95081.84;646058;212;31506;-78
2022/02/15 10:30:28;;;;;;;0.60;0.50;;;5.30;1.40;;;5.91;100.00;95081.25;646682;216;32082;-78
2022/02/15 10:36:01;;;;;;;0.40;0.35;;;5.40;1.40;;;6.05;100.00;95082.97;646459;216;31539;-79
2022/02/15 10:38:43;;;;;;;1.60;0.60;;;5.40;1.40;;;6.13;100.00;95079.59;647045;216;31570;-79
2022/02/15 10:41:28;;;;;;;0.50;0.30;;;5.50;1.40;;;6.14;100.00;95085.37;619988;222;31841;-79
2022/02/15 10:44:07;;;;;;;0.60;0.60;;;5.60;1.40;;;6.33;100.00;95087.77;647492;216;31529;-77
2022/02/15 10:46:48;;;;;;;0.45;0.45;;;5.60;1.40;;;6.40;100.00;95083.44;619086;226;32435;-79
2022/02/15 10:49:29;;;;;;;0.52;0.52;;;5.80;1.40;;;6.47;100.00;95085.78;648144;212;31800;-78
2022/02/15 10:52:11;;;;;;;0.90;0.57;;;5.70;1.40;;;6.57;100.00;95086.61;647402;216;31640;-79
2022/02/15 10:54:56;;;;;;;0.60;0.60;;;5.80;1.40;;;6.69;100.00;95085.75;619493;226;31913;-77
2022/02/15 10:57:37;;;;;;;0.60;0.50;;;5.80;1.40;;;6.71;100.00;95086.41;647343;216;31499;-77
2022/02/15 11:00:22;;;;;;;0.60;0.60;;;5.90;1.40;;;6.94;100.00;95084.98;647635;212;33065;-78
2022/02/15 11:03:04;;;;;;;0.60;0.60;;;6.10;1.40;;;7.15;100.00;95093.02;646781;212;42324;-78
2022/02/15 11:05:46;;;;;;;0.70;0.60;;;6.30;1.40;;;7.09;100.00;95091.39;645389;216;32196;-77
2022/02/15 11:08:28;;;;;;;0.90;0.80;;;6.30;1.40;;;7.29;100.00;95085.94;648076;216;31465;-77
2022/02/15 11:11:17;;;;;;;0.90;0.50;;;6.30;1.40;;;7.49;100.00;95088.48;647523;216;31427;-79
2022/02/15 11:13:59;;;;;;;0.50;0.40;;;6.60;1.40;;;7.50;100.00;95085.59;619846;225;31915;-79
2022/02/15 11:16:41;;;;;;;0.87;0.83;;;6.50;1.40;;;6.98;100.00;95088.48;648654;212;32059;-79
2022/02/15 11:19:23;;;;;;;0.90;0.63;;;6.10;1.40;;;6.98;100.00;95090.81;648345;216;31507;-79
2022/02/15 11:22:10;;;;;;;0.80;0.63;;;6.20;1.40;;;6.94;100.00;95088.28;631533;222;31864;-79
2022/02/15 11:24:49;;;;;;;0.60;0.60;;;6.20;1.40;;;7.16;100.00;95096.94;646390;216;31590;-78
2022/02/15 11:27:37;;;;;;;0.70;0.60;;;6.20;1.40;;;7.19;100.00;95092.05;647433;216;31545;-79
2022/02/15 11:30:18;;;;;;;0.47;0.47;;;6.30;1.40;;;7.00;100.00;95090.63;647809;212;42105;-78
2022/02/15 11:33:00;;;;;;;0.50;0.50;;;6.30;1.40;;;6.89;100.00;95095.25;648291;216;32166;-78
2022/02/15 11:35:54;;;;;;;0.70;0.70;;;6.10;1.40;;;6.69;100.00;95092.05;645997;216;31558;-78
2022/02/15 11:38:36;;;;;;;1.20;0.57;;;6.00;1.40;;;6.67;100.00;95090.30;646974;212;32062;-78
2022/02/15 11:41:18;;;;;;;0.50;0.40;;;6.00;1.40;;;6.78;100.00;95089.55;647848;212;31504;-77
2022/02/15 11:44:00;;;;;;;0.90;0.55;;;6.10;1.40;;;7.15;100.00;95090.66;646142;216;31716;-77
2022/02/15 11:46:43;;;;;;;0.70;0.63;;;6.20;1.40;;;6.95;100.00;95086.70;619768;222;31889;-77
2022/02/15 11:49:25;;;;;;;0.90;0.70;;;6.10;1.40;;;6.62;100.00;95092.41;642732;214;31575;-78
2022/02/15 11:52:07;;;;;;;1.20;0.60;;;5.90;1.40;;;6.44;100.00;95089.96;619315;222;31834;-78
2022/02/15 11:54:49;;;;;;;0.53;0.47;;;5.70;1.40;;;6.59;100.00;95090.63;646378;216;31536;-77
2022/02/15 11:57:31;;;;;;;0.60;0.60;;;5.80;1.40;;;6.35;100.00;95084.80;647571;216;31525;-77
2022/02/15 12:00:12;;;;;;;1.10;0.88;;;5.70;1.40;;;6.57;100.00;95085.14;648151;216;31510;-77
2022/02/15 12:02:55;;;;;;;1.20;0.70;;;6.00;1.40;;;7.02;100.00;95090.60;641620;220;31550;-77
2022/02/15 12:05:42;;;;;;;1.27;0.73;;;6.30;1.40;;;7.34;100.00;95092.23;646248;216;31546;-77
2022/02/15 12:08:22;;;;;;;0.60;0.60;;;6.40;1.40;;;7.17;100.00;95094.94;643787;216;32087;-78